Time;durP1;ratioP1;P1;durP2;ratioP2;P2;SDS_P1;SDS_P2;PMS_P1;PMS_P2;Temp;Humidity;BMP_temperature;BMP_pressure;BME280_temperature;BME280_humidity;BME280_pressure;Samples;Min_cycle;Max_cycle;Signal;HPM_P1;HPM_P2
2023/04/17 00:01:12;;;;;;;4.53;4.22;;;;;;;7.11;90.13;95869.38;5078673;28;20054;-50
2023/04/17 00:03:37;;;;;;;4.47;4.07;;;;;;;7.16;89.71;95861.19;5091929;28;20370;-60
2023/04/17 00:06:04;;;;;;;5.20;4.70;;;;;;;6.96;90.20;95855.66;5084575;28;20035;-60
2023/04/17 00:08:30;;;;;;;4.78;4.47;;;;;;;6.95;90.79;95859.25;5081768;28;20168;-60
2023/04/17 00:10:55;;;;;;;4.82;4.40;;;;;;;7.01;90.07;95857.94;5094278;28;20089;-61
2023/04/17 00:13:21;;;;;;;5.15;4.72;;;;;;;7.02;90.25;95854.38;5088466;28;20030;-60
2023/04/17 00:15:46;;;;;;;5.00;4.60;;;;;;;7.08;89.30;95858.31;5073868;28;20112;-60
2023/04/17 00:18:11;;;;;;;4.57;4.28;;;;;;;6.91;90.76;95855.19;5090474;28;20027;-60
2023/04/17 00:20:37;;;;;;;4.57;4.28;;;;;;;6.83;91.33;95849.69;5090636;28;20027;-60
2023/04/17 00:23:02;;;;;;;4.90;4.60;;;;;;;6.77;91.98;95856.22;5087390;28;20045;-60
2023/04/17 00:25:28;;;;;;;5.38;4.90;;;;;;;6.83;91.20;95849.69;5081763;28;20032;-60
2023/04/17 00:27:53;;;;;;;4.80;4.50;;;;;;;6.75;91.54;95852.91;5089042;28;20039;-60
2023/04/17 00:30:18;;;;;;;4.80;4.40;;;;;;;6.94;90.47;95852.34;5079469;28;20483;-60
2023/04/17 00:32:44;;;;;;;4.70;4.40;;;;;;;6.94;90.68;95848.88;5089794;28;20058;-60
2023/04/17 00:35:10;;;;;;;4.88;4.57;;;;;;;7.05;90.32;95845.44;5087282;28;20020;-61
2023/04/17 00:37:35;;;;;;;4.82;4.43;;;;;;;6.93;91.43;95849.81;5080969;28;20031;-60
2023/04/17 00:40:02;;;;;;;5.53;5.13;;;;;;;6.81;91.54;95851.59;5072160;28;20052;-60
2023/04/17 00:42:27;;;;;;;4.70;4.35;;;;;;;6.77;91.59;95847.53;5084008;28;20073;-62
2023/04/17 00:44:53;;;;;;;4.55;4.25;;;;;;;6.81;91.92;95847.19;5080821;28;20032;-60
2023/04/17 00:47:21;;;;;;;4.88;4.47;;;;;;;6.81;91.30;95849.81;5081425;28;20095;-60
2023/04/17 00:49:47;;;;;;;4.68;4.32;;;;;;;6.91;91.19;95843.88;5085056;28;20024;-60
2023/04/17 00:52:21;;;;;;;4.60;4.32;;;;;;;6.89;90.43;95849.25;5094793;28;20258;-60
2023/04/17 00:54:46;;;;;;;5.55;5.15;;;;;;;6.99;nan;95844.16;5082197;28;20085;-60
2023/04/17 00:57:12;;;;;;;5.20;4.90;;;;;;;6.82;91.32;95845.41;5098377;28;20110;-60
2023/04/17 00:59:38;;;;;;;4.28;4.07;;;;;;;6.73;91.31;95842.53;5104658;28;20020;-60
2023/04/17 01:02:04;;;;;;;4.40;4.20;;;;;;;6.68;91.50;95846.44;5092462;28;20039;-60
2023/04/17 01:04:30;;;;;;;3.97;3.70;;;;;;;6.65;91.93;95836.19;5090926;28;20064;-60
2023/04/17 01:06:55;;;;;;;4.40;4.10;;;;;;;6.64;93.18;95835.38;5090067;28;20111;-60
2023/04/17 01:09:21;;;;;;;4.35;4.05;;;;;;;6.64;93.12;95839.75;5096583;28;20024;-60
2023/04/17 01:11:46;;;;;;;4.72;4.43;;;;;;;6.81;92.45;95841.97;5097063;28;20065;-60
2023/04/17 01:14:13;;;;;;;5.00;4.70;;;;;;;6.79;92.06;95843.84;5092372;28;20074;-60
2023/04/17 01:16:39;;;;;;;5.20;4.80;;;;;;;6.76;92.02;95833.63;5093613;28;20020;-60
2023/04/17 01:19:06;;;;;;;5.07;4.60;;;;;;;6.69;92.76;95835.84;5078893;28;20056;-60
2023/04/17 01:21:31;;;;;;;4.72;4.43;;;;;;;6.75;93.05;95834.56;5082829;28;20027;-60
2023/04/17 01:24:01;;;;;;;6.95;4.85;;;;;;;6.64;93.63;95834.53;5096711;28;20020;-60
2023/04/17 01:26:30;;;;;;;4.85;4.45;;;;;;;6.58;93.86;95838.44;5080309;28;20040;-60
2023/04/17 01:28:58;;;;;;;4.78;4.47;;;;;;;6.53;93.85;95838.78;5080643;28;20031;-60
2023/04/17 01:31:27;;;;;;;4.88;4.57;;;;;;;6.64;92.76;95834.53;5097669;28;20229;-60
2023/04/17 01:33:53;;;;;;;4.70;4.40;;;;;;;6.57;93.03;95837.59;5085247;28;20031;-60
2023/04/17 01:36:18;;;;;;;5.10;4.70;;;;;;;6.54;93.47;95829.16;5085453;28;20121;-60
2023/04/17 01:38:44;;;;;;;5.40;5.03;;;;;;;6.48;93.73;95829.59;5081578;28;20040;-60
2023/04/17 01:41:10;;;;;;;4.90;4.47;;;;;;;6.48;93.80;95830.41;5080311;28;20066;-60
2023/04/17 01:43:41;;;;;;;5.22;4.78;;;;;;;6.45;94.39;95828.03;5082193;28;20043;-60
2023/04/17 01:46:07;;;;;;;4.80;4.50;;;;;;;6.47;93.83;95828.75;5100521;28;20024;-60
2023/04/17 01:48:33;;;;;;;5.50;5.00;;;;;;;6.52;93.91;95826.66;5097246;28;20016;-60
2023/04/17 01:50:59;;;;;;;5.32;4.93;;;;;;;6.46;94.04;95821.84;5093370;28;20134;-60
2023/04/17 01:53:25;;;;;;;4.65;4.35;;;;;;;6.44;94.40;95824.59;5097006;28;20055;-59
2023/04/17 01:55:51;;;;;;;4.80;4.50;;;;;;;6.45;93.88;95821.03;5091365;28;20036;-60
2023/04/17 01:58:16;;;;;;;5.18;4.88;;;;;;;6.44;93.94;95819.38;5091154;28;20028;-60
2023/04/17 02:00:44;;;;;;;5.75;5.32;;;;;;;6.46;93.59;95829.69;5088953;28;20034;-60
2023/04/17 02:03:10;;;;;;;5.55;5.05;;;;;;;6.48;93.20;95819.13;5089550;28;20089;-60
2023/04/17 02:05:35;;;;;;;5.28;4.88;;;;;;;6.49;93.78;95820.81;5083274;28;20020;-60
2023/04/17 02:08:01;;;;;;;5.05;4.75;;;;;;;6.49;93.58;95818.19;5079579;28;20019;-60
2023/04/17 02:10:26;;;;;;;5.82;5.43;;;;;;;6.48;93.42;95817.34;5080182;28;20023;-60
2023/04/17 02:12:51;;;;;;;5.30;4.90;;;;;;;6.46;93.85;95811.41;5093081;28;20016;-60
2023/04/17 02:15:17;;;;;;;5.75;5.35;;;;;;;6.45;93.70;95814.97;5089558;28;20024;-61
2023/04/17 02:17:42;;;;;;;6.03;5.50;;;;;;;6.43;93.64;95811.63;5085107;28;20127;-60
2023/04/17 02:20:08;;;;;;;5.70;4.97;;;;;;;6.51;93.63;95814.50;5088774;28;20020;-60
2023/04/17 02:22:33;;;;;;;5.13;4.82;;;;;;;6.56;93.16;95815.00;5090266;28;20422;-60
2023/04/17 02:24:59;;;;;;;5.22;4.80;;;;;;;6.63;93.27;95804.94;5090414;28;20421;-60
2023/04/17 02:27:24;;;;;;;5.20;4.80;;;;;;;6.60;93.66;95812.97;5087283;28;20050;-60
2023/04/17 02:29:50;;;;;;;4.90;4.60;;;;;;;6.68;93.82;95813.25;5078554;28;20115;-59
2023/04/17 02:32:16;;;;;;;5.07;4.68;;;;;;;6.61;94.46;95813.84;5091398;28;20366;-60
2023/04/17 02:34:41;;;;;;;4.65;4.35;;;;;;;6.52;95.66;95808.34;5086604;28;20012;-60
2023/04/17 02:37:07;;;;;;;5.13;4.32;;;;;;;6.45;96.07;95804.50;5091332;28;20025;-60
2023/04/17 02:39:32;;;;;;;5.10;4.80;;;;;;;6.45;95.43;95809.72;5077597;28;20437;-60
2023/04/17 02:41:58;;;;;;;5.90;5.50;;;;;;;6.49;94.91;95810.34;5089333;28;20220;-60
2023/04/17 02:44:23;;;;;;;5.10;4.78;;;;;;;6.55;94.50;95808.13;5084611;28;20039;-60
2023/04/17 02:46:49;;;;;;;5.68;5.28;;;;;;;6.54;94.39;95809.06;5076248;28;20039;-60
2023/04/17 02:49:15;;;;;;;5.57;5.18;;;;;;;6.47;94.95;95813.06;5087730;28;20068;-60
2023/04/17 02:51:40;;;;;;;5.60;5.20;;;;;;;6.52;95.12;95812.72;5085376;28;20028;-60
2023/04/17 02:54:05;;;;;;;6.40;5.85;;;;;;;6.43;95.58;95816.84;5089750;28;20028;-60
2023/04/17 02:56:31;;;;;;;6.25;5.60;;;;;;;6.38;95.53;95811.97;5096277;28;20495;-60
2023/04/17 02:58:56;;;;;;;5.18;4.88;;;;;;;6.34;95.99;95807.09;5097453;28;20089;-60
2023/04/17 03:01:22;;;;;;;5.60;5.20;;;;;;;6.43;96.09;95807.25;5088903;28;20024;-60
2023/04/17 03:03:47;;;;;;;6.22;5.72;;;;;;;6.35;95.62;95806.13;5077713;28;20257;-60
2023/04/17 03:06:13;;;;;;;6.68;5.93;;;;;;;6.38;95.37;95804.09;5089552;28;20075;-60
2023/04/17 03:08:38;;;;;;;6.40;5.90;;;;;;;6.31;95.71;95810.75;5082056;28;20630;-60
2023/04/17 03:11:05;;;;;;;6.88;6.35;;;;;;;6.27;95.93;95817.97;5094046;28;20043;-60
2023/04/17 03:13:33;;;;;;;6.40;5.93;;;;;;;6.29;95.92;95805.63;5081521;28;20016;-60
2023/04/17 03:16:00;;;;;;;6.70;6.20;;;;;;;6.26;95.80;95805.03;5095983;28;20118;-60
2023/04/17 03:18:25;;;;;;;6.45;5.95;;;;;;;6.43;95.10;95806.41;5095032;28;20054;-60
2023/04/17 03:20:51;;;;;;;6.03;5.63;;;;;;;6.35;94.71;95808.75;5080727;28;20028;-61
2023/04/17 03:23:17;;;;;;;6.63;6.03;;;;;;;6.43;94.11;95811.63;5087931;28;20025;-60
2023/04/17 03:25:42;;;;;;;6.38;5.93;;;;;;;6.39;94.43;95805.78;5074205;28;20048;-60
2023/04/17 03:28:08;;;;;;;6.30;5.80;;;;;;;6.36;94.65;95811.25;5081135;28;20489;-60
2023/04/17 03:30:33;;;;;;;6.57;6.07;;;;;;;6.36;95.54;95813.84;5078882;28;20023;-60
2023/04/17 03:32:58;;;;;;;6.45;5.88;;;;;;;6.34;95.59;95802.69;5090025;28;20035;-60
2023/04/17 03:35:24;;;;;;;5.93;5.53;;;;;;;6.40;95.83;95806.63;5082921;28;20028;-60
2023/04/17 03:37:49;;;;;;;6.72;6.13;;;;;;;6.37;96.20;95804.25;5083398;28;20016;-60
2023/04/17 03:40:15;;;;;;;6.95;6.45;;;;;;;6.33;94.61;95801.00;5083109;28;20116;-60
2023/04/17 03:42:40;;;;;;;6.50;6.05;;;;;;;6.36;94.44;95805.19;5081486;28;20027;-60
2023/04/17 03:45:06;;;;;;;6.78;6.28;;;;;;;6.31;94.18;95800.28;5081623;28;20111;-51
2023/04/17 03:47:32;;;;;;;6.55;6.13;;;;;;;6.39;94.25;95802.34;5090002;28;20031;-52
2023/04/17 03:49:57;;;;;;;6.55;6.05;;;;;;;6.33;94.32;95802.81;5092900;28;20446;-50
2023/04/17 03:52:22;;;;;;;6.78;6.28;;;;;;;6.34;94.88;95807.09;5080476;28;20098;-50
2023/04/17 03:54:48;;;;;;;7.10;6.50;;;;;;;6.37;95.09;95804.25;5092612;28;20100;-50
2023/04/17 03:57:14;;;;;;;6.60;6.10;;;;;;;6.33;95.25;95805.41;5075462;28;20059;-51
2023/04/17 03:59:40;;;;;;;6.90;6.40;;;;;;;6.33;94.78;95803.63;5090699;28;20470;-50
2023/04/17 04:02:05;;;;;;;6.38;5.88;;;;;;;6.36;94.39;95800.78;5090649;28;20047;-49
2023/04/17 04:04:31;;;;;;;7.03;6.40;;;;;;;6.28;94.46;95803.13;5079440;28;20017;-51
2023/04/17 04:06:56;;;;;;;6.72;6.13;;;;;;;6.32;93.99;95804.56;5087698;28;20020;-53
2023/04/17 04:09:23;;;;;;;6.80;6.22;;;;;;;6.39;93.51;95802.34;5079036;28;20091;-51
2023/04/17 04:11:49;;;;;;;6.55;5.97;;;;;;;6.30;94.23;95802.09;5074576;28;20409;-52
2023/04/17 04:14:14;;;;;;;7.00;6.30;;;;;;;6.25;94.07;95798.94;5080991;28;20466;-50
2023/04/17 04:16:40;;;;;;;6.75;6.20;;;;;;;6.22;94.37;95804.41;5088757;28;20035;-51
2023/04/17 04:19:05;;;;;;;6.93;6.35;;;;;;;6.31;94.45;95800.28;5090496;28;20024;-50
2023/04/17 04:21:30;;;;;;;7.10;6.40;;;;;;;6.27;94.20;95794.44;5080713;28;20048;-51
2023/04/17 04:23:56;;;;;;;6.85;6.25;;;;;;;6.21;94.19;95800.13;5083863;28;20547;-50
2023/04/17 04:26:23;;;;;;;6.88;6.38;;;;;;;6.19;94.26;95795.94;5085470;28;20446;-52
2023/04/17 04:28:48;;;;;;;6.63;6.10;;;;;;;6.21;94.27;95794.91;5078649;28;20048;-52
2023/04/17 04:31:17;;;;;;;6.78;6.18;;;;;;;6.19;94.56;95796.78;5089827;28;20037;-50
2023/04/17 04:33:43;;;;;;;7.05;6.40;;;;;;;6.18;94.63;95797.75;5087361;28;20039;-49
2023/04/17 04:36:12;;;;;;;6.30;5.80;;;;;;;6.25;95.20;95793.72;5082703;28;20059;-51
2023/04/17 04:38:38;;;;;;;6.90;6.30;;;;;;;6.22;97.25;95803.59;5086968;28;20029;-59
2023/04/17 04:41:09;;;;;;;6.50;6.00;;;;;;;6.20;97.46;95808.91;5074623;28;20035;-60
2023/04/17 04:43:35;;;;;;;6.28;5.85;;;;;;;6.18;98.38;95804.72;5086664;28;20255;-60
2023/04/17 04:46:01;;;;;;;7.13;6.43;;;;;;;6.16;97.85;95807.47;5092484;28;20097;-60
2023/04/17 04:48:30;;;;;;;6.88;6.28;;;;;;;6.15;99.05;95801.41;5079820;28;20039;-60
2023/04/17 04:50:55;;;;;;;6.90;6.30;;;;;;;6.11;100.00;95805.19;5088031;28;20043;-60
2023/04/17 04:53:21;;;;;;;6.93;6.43;;;;;;;6.10;100.00;95807.94;5074633;28;20470;-59
2023/04/17 04:55:46;;;;;;;6.22;5.72;;;;;;;6.10;99.61;95816.59;5088318;28;20074;-60
2023/04/17 04:58:12;;;;;;;7.50;6.90;;;;;;;6.14;99.22;95812.00;5080561;28;20111;-60
2023/04/17 05:00:37;;;;;;;6.75;6.25;;;;;;;6.10;99.71;95806.13;5082472;28;20589;-60
2023/04/17 05:03:03;;;;;;;6.90;6.30;;;;;;;6.10;98.63;95813.16;5072029;28;20525;-60
2023/04/17 05:05:28;;;;;;;6.53;6.03;;;;;;;6.11;99.63;95809.59;5074507;28;20115;-60
2023/04/17 05:07:54;;;;;;;6.72;6.22;;;;;;;6.13;100.00;95815.56;5081778;28;20400;-59
2023/04/17 05:10:20;;;;;;;6.90;6.30;;;;;;;6.13;99.33;95813.75;5082764;28;20315;-60
2023/04/17 05:12:45;;;;;;;8.00;7.40;;;;;;;6.13;100.00;95815.56;5079226;28;20027;-60
2023/04/17 05:15:11;;;;;;;7.47;6.88;;;;;;;6.09;99.72;95808.88;5080842;28;20028;-59
2023/04/17 05:17:39;;;;;;;6.80;6.20;;;;;;;6.05;100.00;95812.63;5087119;28;20024;-58
2023/04/17 05:20:05;;;;;;;6.35;5.75;;;;;;;6.06;100.00;95809.06;5074937;28;20108;-59
2023/04/17 05:22:31;;;;;;;7.30;6.60;;;;;;;6.04;98.58;95811.81;5076527;28;20019;-59
2023/04/17 05:24:57;;;;;;;7.07;6.47;;;;;;;6.06;98.10;95809.94;5085836;28;20028;-60
2023/04/17 05:27:25;;;;;;;8.20;6.25;;;;;;;6.15;97.96;95814.47;5077756;28;20220;-60
2023/04/17 05:29:51;;;;;;;6.80;6.30;;;;;;;6.23;97.95;95820.94;5077975;28;20030;-60
2023/04/17 05:32:16;;;;;;;7.60;7.10;;;;;;;6.28;96.84;95821.44;5075366;28;20126;-59
2023/04/17 05:34:41;;;;;;;7.50;6.80;;;;;;;6.22;96.92;95820.09;5091013;28;20012;-59
2023/04/17 05:37:07;;;;;;;7.18;6.57;;;;;;;6.20;97.38;95826.41;5086604;28;20490;-60
2023/04/17 05:39:33;;;;;;;6.90;6.30;;;;;;;6.14;98.53;95818.03;5086791;28;20458;-59
2023/04/17 05:41:58;;;;;;;6.47;5.97;;;;;;;6.26;98.23;95820.72;5084840;28;20015;-60
2023/04/17 05:44:24;;;;;;;6.32;5.72;;;;;;;6.15;98.57;95829.34;5087793;28;20316;-59
2023/04/17 05:46:49;;;;;;;6.28;5.78;;;;;;;6.13;98.86;95826.81;5083219;28;20058;-59
2023/04/17 05:49:14;;;;;;;6.15;5.65;;;;;;;6.18;98.61;95829.13;5091267;28;20165;-60
2023/04/17 05:51:40;;;;;;;6.68;6.20;;;;;;;6.25;99.57;95826.91;5095149;28;20028;-59
2023/04/17 05:54:05;;;;;;;8.52;6.93;;;;;;;6.24;100.00;95835.69;5087747;28;20019;-60
2023/04/17 05:56:31;;;;;;;7.10;6.35;;;;;;;6.21;100.00;95834.13;5087345;28;20028;-60
2023/04/17 05:58:56;;;;;;;7.15;6.50;;;;;;;6.23;99.68;95837.44;5086987;28;20020;-60
2023/04/17 06:01:22;;;;;;;7.38;6.68;;;;;;;6.22;100.00;95841.00;5078197;28;20020;-60
2023/04/17 06:03:50;;;;;;;7.70;6.03;;;;;;;6.21;100.00;95844.56;5078800;28;20024;-60
2023/04/17 06:06:15;;;;;;;6.70;6.10;;;;;;;6.19;100.00;95846.47;5080674;28;20042;-60
2023/04/17 06:08:41;;;;;;;6.70;6.07;;;;;;;6.19;100.00;95843.84;5087586;28;20032;-60
2023/04/17 06:11:06;;;;;;;6.53;6.03;;;;;;;6.24;100.00;95849.56;5093541;28;20496;-59
2023/04/17 06:13:32;;;;;;;6.60;5.90;;;;;;;6.24;100.00;95844.34;5083413;28;20024;-59
2023/04/17 06:15:57;;;;;;;7.38;6.68;;;;;;;6.24;100.00;95844.34;5082355;28;20062;-60
2023/04/17 06:18:23;;;;;;;6.65;6.07;;;;;;;6.30;100.00;95849.16;5083207;28;20031;-60
2023/04/17 06:20:48;;;;;;;7.05;6.40;;;;;;;6.33;100.00;95847.25;5076057;28;20107;-60
2023/04/17 06:23:14;;;;;;;7.50;6.95;;;;;;;6.37;100.00;95852.13;5095754;28;20024;-60
2023/04/17 06:25:42;;;;;;;7.78;7.18;;;;;;;6.47;99.90;95854.09;5078867;28;20032;-59
2023/04/17 06:28:08;;;;;;;7.72;7.03;;;;;;;6.49;100.00;95849.59;5091406;28;20032;-60
2023/04/17 06:30:33;;;;;;;8.23;7.53;;;;;;;6.43;100.00;95853.47;5082925;28;20024;-60
2023/04/17 06:32:59;;;;;;;8.98;6.70;;;;;;;6.41;100.00;95848.38;5078514;28;20025;-61
2023/04/17 06:35:24;;;;;;;7.78;7.00;;;;;;;6.40;100.00;95851.09;5081565;28;20065;-60
2023/04/17 06:37:49;;;;;;;8.20;7.00;;;;;;;6.40;100.00;95854.53;5079443;28;20085;-60
2023/04/17 06:40:15;;;;;;;7.88;7.10;;;;;;;6.43;100.00;95848.25;5089947;28;20469;-60
2023/04/17 06:42:40;;;;;;;7.18;6.68;;;;;;;6.50;100.00;95849.44;5083428;28;20108;-60
2023/04/17 06:45:06;;;;;;;7.22;6.63;;;;;;;6.48;100.00;95853.97;5083072;28;20363;-60
2023/04/17 06:47:32;;;;;;;6.97;6.35;;;;;;;6.48;100.00;95846.13;5080941;28;20031;-60
2023/04/17 06:49:58;;;;;;;7.10;6.32;;;;;;;6.44;100.00;95850.75;5094835;28;20016;-60
2023/04/17 06:52:25;;;;;;;7.05;6.55;;;;;;;6.48;100.00;95846.13;5078818;28;20032;-60
2023/04/17 06:54:54;;;;;;;6.78;6.28;;;;;;;6.50;100.00;95844.22;5089877;28;20096;-60
2023/04/17 06:57:21;;;;;;;7.53;6.82;;;;;;;6.45;100.00;95848.97;5092401;28;20035;-60
2023/04/17 06:59:46;;;;;;;7.32;6.68;;;;;;;6.45;100.00;95859.41;5087022;28;20020;-60
2023/04/17 07:02:12;;;;;;;6.95;6.45;;;;;;;6.48;100.00;95843.50;5084695;28;20039;-60
2023/04/17 07:04:37;;;;;;;7.40;6.80;;;;;;;6.40;100.00;95851.91;5085244;28;20015;-60
2023/04/17 07:07:03;;;;;;;8.13;6.85;;;;;;;6.43;100.00;95853.47;5085275;28;20119;-60
2023/04/17 07:09:28;;;;;;;6.95;6.35;;;;;;;6.54;100.00;95850.91;5078995;28;20028;-60
2023/04/17 07:11:54;;;;;;;7.68;6.88;;;;;;;6.57;100.00;95845.47;5080068;28;20298;-60
2023/04/17 07:14:19;;;;;;;8.07;7.53;;;;;;;6.67;100.00;95850.00;5075592;28;20032;-60
2023/04/17 07:16:45;;;;;;;14.05;13.02;;;;;;;6.77;100.00;95856.22;5080291;28;20028;-60
2023/04/17 07:19:10;;;;;;;11.07;10.27;;;;;;;6.92;100.00;95848.16;5077323;28;20023;-60
2023/04/17 07:21:36;;;;;;;8.50;7.80;;;;;;;7.05;99.04;95850.69;5075053;28;20032;-59
2023/04/17 07:24:01;;;;;;;6.80;6.30;;;;;;;7.13;98.50;95849.16;5085919;28;20059;-60
2023/04/17 07:26:27;;;;;;;7.72;7.03;;;;;;;7.22;97.69;95854.66;5073677;28;20092;-60
2023/04/17 07:28:52;;;;;;;7.82;7.15;;;;;;;7.33;97.50;95854.66;5077973;28;20144;-58
2023/04/17 07:31:18;;;;;;;8.18;7.47;;;;;;;7.40;96.18;95858.47;5082568;28;20054;-60
2023/04/17 07:33:43;;;;;;;7.50;6.90;;;;;;;7.40;95.35;95847.16;5081259;28;20032;-60
2023/04/17 07:36:10;;;;;;;6.70;6.20;;;;;;;7.51;95.58;95849.78;5071540;28;20169;-59
2023/04/17 07:38:36;;;;;;;6.90;6.30;;;;;;;7.50;94.31;95855.97;5088496;28;20544;-59
2023/04/17 07:41:02;;;;;;;6.20;5.72;;;;;;;7.51;94.92;95847.16;5080645;28;20120;-59
2023/04/17 07:43:27;;;;;;;6.53;5.93;;;;;;;7.40;95.22;95849.78;5085120;28;20031;-59
2023/04/17 07:45:54;;;;;;;6.63;6.13;;;;;;;7.25;97.08;95857.03;5079269;28;20703;-58
2023/04/17 07:48:21;;;;;;;6.97;6.35;;;;;;;7.22;97.04;95846.81;5086301;28;20484;-56
2023/04/17 07:50:50;;;;;;;6.15;5.63;;;;;;;7.30;96.41;95852.28;5082113;28;20062;-58
2023/04/17 07:53:20;;;;;;;6.45;5.95;;;;;;;7.22;95.61;95852.84;5079816;28;20032;-58
2023/04/17 07:55:46;;;;;;;6.50;6.00;;;;;;;7.24;95.99;95853.56;5077160;28;20039;-58
2023/04/17 07:58:12;;;;;;;6.40;5.80;;;;;;;7.28;94.60;95859.41;5083276;28;20033;-59
2023/04/17 08:00:42;;;;;;;6.45;5.95;;;;;;;7.31;93.70;95862.66;5081271;28;20051;-57
2023/04/17 08:03:07;;;;;;;5.82;5.43;;;;;;;7.28;94.00;95860.22;5088383;28;20084;-55
2023/04/17 08:05:33;;;;;;;5.22;4.82;;;;;;;7.27;92.72;95863.00;5082360;28;20048;-59
2023/04/17 08:07:59;;;;;;;5.20;4.90;;;;;;;7.26;92.24;95866.56;5084009;28;20320;-58
2023/04/17 08:10:26;;;;;;;5.18;4.78;;;;;;;7.31;92.34;95859.19;5094977;28;20035;-57
2023/04/17 08:12:51;;;;;;;5.43;5.03;;;;;;;7.45;92.26;95853.72;5083409;28;20085;-57
2023/04/17 08:15:17;;;;;;;5.63;5.22;;;;;;;7.57;92.70;95859.78;5093911;28;20024;-58
2023/04/17 08:17:43;;;;;;;5.63;5.22;;;;;;;7.64;92.12;95857.53;5073804;28;20028;-56
2023/04/17 08:20:10;;;;;;;7.38;5.30;;;;;;;7.84;91.20;95852.50;5075044;28;20025;-56
2023/04/17 08:22:42;;;;;;;6.13;5.70;;;;;;;7.88;91.99;95851.31;5094222;28;20027;-59
2023/04/17 08:25:09;;;;;;;5.60;5.20;;;;;;;7.93;91.45;95856.19;5087058;28;20462;-56
2023/04/17 08:27:39;;;;;;;4.78;4.40;;;;;;;8.01;89.47;95852.00;5085724;28;20019;-58
2023/04/17 08:30:07;;;;;;;21.75;9.48;;;;;;;7.96;90.38;95854.16;5089314;28;20381;-56
2023/04/17 08:32:44;;;;;;;6.43;5.85;;;;;;;8.01;90.26;95857.25;5080089;28;20036;-57
2023/04/17 08:35:11;;;;;;;108.13;38.63;;;;;;;8.15;89.79;95860.56;5080017;28;20088;-57
2023/04/17 08:37:41;;;;;;;32.92;16.00;;;;;;;8.10;90.06;95860.91;5080985;28;20704;-57
2023/04/17 08:40:08;;;;;;;13.13;9.95;;;;;;;8.24;89.55;95859.81;5086505;28;20040;-56
2023/04/17 08:42:40;;;;;;;7.15;6.53;;;;;;;8.28;88.20;95858.59;5085957;28;20051;-57
2023/04/17 08:45:08;;;;;;;21.92;11.77;;;;;;;8.27;87.50;95854.31;5089403;28;20028;-56
2023/04/17 08:47:34;;;;;;;12.60;6.90;;;;;;;8.37;87.34;95858.84;5079523;28;20028;-56
2023/04/17 08:50:17;;;;;;;82.30;34.67;;;;;;;8.54;86.41;95857.50;5089766;28;20146;-54
2023/04/17 08:52:47;;;;;;;5.95;5.40;;;;;;;8.60;85.72;95859.59;5079780;28;20047;-58
2023/04/17 08:55:21;;;;;;;6.22;4.47;;;;;;;8.57;85.71;95859.84;5078884;28;20528;-58
2023/04/17 08:58:06;;;;;;;5.15;4.70;;;;;;;8.50;85.51;95856.06;5087814;28;20102;-59
2023/04/17 09:00:37;;;;;;;56.72;20.95;;;;;;;8.62;84.85;95852.47;5081921;28;20022;-58
2023/04/17 09:03:06;;;;;;;26.83;11.85;;;;;;;8.71;85.38;95848.22;5075740;28;20058;-59
2023/04/17 09:05:32;;;;;;;5.78;5.28;;;;;;;8.88;83.50;95850.28;5077150;28;20322;-58
2023/04/17 09:08:19;;;;;;;5.03;4.53;;;;;;;8.86;82.34;95852.22;5088185;28;20024;-58
2023/04/17 09:10:53;;;;;;;4.82;4.28;;;;;;;9.09;82.13;95857.34;5095501;28;20123;-63
2023/04/17 09:13:21;;;;;;;6.38;4.25;;;;;;;9.13;80.54;95852.69;5089354;28;20054;-59
2023/04/17 09:16:06;;;;;;;7.07;4.05;;;;;;;9.16;80.58;95850.59;5081165;28;20020;-58
2023/04/17 09:18:32;;;;;;;5.80;4.35;;;;;;;9.31;80.88;95853.75;5085951;28;20043;-59
2023/04/17 09:21:02;;;;;;;4.70;4.30;;;;;;;9.43;79.06;95851.03;5084406;28;20032;-59
2023/04/17 09:23:31;;;;;;;4.20;3.90;;;;;;;9.54;79.65;95843.06;5088470;28;20036;-59
2023/04/17 09:26:09;;;;;;;4.50;4.20;;;;;;;9.52;78.24;95847.63;5085103;28;20379;-59
2023/04/17 09:28:38;;;;;;;5.13;3.92;;;;;;;9.58;78.69;95851.50;5086246;28;20157;-59
2023/04/17 09:31:06;;;;;;;4.68;4.30;;;;;;;9.66;78.82;95843.81;5082146;28;20844;-60
2023/04/17 09:33:31;;;;;;;3.90;3.60;;;;;;;9.84;78.24;95841.38;5076374;28;20082;-59
2023/04/17 09:36:20;;;;;;;3.78;3.47;;;;;;;9.87;75.63;95848.19;5078988;28;20013;-59
2023/04/17 09:38:45;;;;;;;4.10;3.80;;;;;;;9.96;74.00;95846.53;5080887;28;20169;-59
2023/04/17 09:41:38;;;;;;;3.97;3.67;;;;;;;10.19;73.26;95849.75;5079532;28;20062;-59
2023/04/17 09:44:05;;;;;;;4.60;4.10;;;;;;;10.06;74.21;95842.13;5074940;28;20104;-58
2023/04/17 09:46:37;;;;;;;4.03;3.78;;;;;;;10.19;73.89;95841.88;5091155;28;20166;-60
2023/04/17 09:49:25;;;;;;;4.22;3.92;;;;;;;10.18;73.19;95841.06;5079121;28;20032;-59
2023/04/17 09:51:52;;;;;;;3.85;3.55;;;;;;;10.17;73.08;95841.19;5077496;28;20020;-60
2023/04/17 09:54:19;;;;;;;4.28;3.97;;;;;;;10.19;72.37;95839.25;5078471;28;20058;-59
2023/04/17 09:56:48;;;;;;;3.88;3.58;;;;;;;10.06;73.23;95828.13;5076422;28;20036;-60
2023/04/17 09:59:15;;;;;;;4.53;4.20;;;;;;;10.13;72.75;95837.97;5083018;28;20103;-59
2023/04/17 10:01:41;;;;;;;4.55;4.13;;;;;;;10.14;71.99;95836.19;5080324;28;20100;-60
2023/04/17 10:04:06;;;;;;;5.38;4.10;;;;;;;10.10;71.71;95826.91;5077673;28;20020;-60
2023/04/17 10:06:33;;;;;;;4.50;4.20;;;;;;;10.16;72.73;95826.38;5077946;28;20355;-59
2023/04/17 10:08:59;;;;;;;4.07;3.70;;;;;;;10.34;71.74;95825.69;5076093;28;20013;-59
2023/04/17 10:11:29;;;;;;;4.15;3.90;;;;;;;10.40;71.96;95827.78;5078776;28;20482;-59
2023/04/17 10:14:00;;;;;;;3.92;3.72;;;;;;;10.56;72.09;95821.97;5074163;28;20115;-60
2023/04/17 10:16:40;;;;;;;4.10;3.80;;;;;;;10.52;70.30;95824.09;5074024;28;20027;-59
2023/04/17 10:19:31;;;;;;;4.20;3.90;;;;;;;10.38;71.32;95827.09;5081626;28;20063;-59
2023/04/17 10:22:18;;;;;;;4.35;4.05;;;;;;;10.45;71.37;95822.94;5076278;28;20098;-62
2023/04/17 10:24:51;;;;;;;4.05;3.75;;;;;;;10.52;71.97;95824.09;5082092;28;20024;-61
2023/04/17 10:27:26;;;;;;;3.72;3.50;;;;;;;10.78;71.35;95823.50;5083455;28;20410;-59
2023/04/17 10:29:55;;;;;;;5.97;4.18;;;;;;;10.74;71.39;95822.13;5096538;28;20019;-56
2023/04/17 10:32:24;;;;;;;4.22;3.92;;;;;;;10.78;72.30;95818.25;5079542;28;20027;-58
2023/04/17 10:34:50;;;;;;;3.88;3.58;;;;;;;10.80;70.54;95824.19;5078809;28;20020;-60
2023/04/17 10:37:16;;;;;;;4.22;3.92;;;;;;;10.52;71.79;95817.97;5079422;28;20168;-59
2023/04/17 10:39:52;;;;;;;3.90;3.60;;;;;;;10.73;71.89;95821.28;5081111;28;20056;-61
2023/04/17 10:42:19;;;;;;;;;;;;;;;10.69;70.78;95819.06;5089052;28;20099;-59
2023/04/17 10:44:45;;;;;;;4.55;4.10;;;;;;;10.78;69.16;95817.41;5078478;28;19984;-61
2023/04/17 10:47:14;;;;;;;6.30;4.13;;;;;;;10.37;69.35;95820.97;5091428;28;20020;-61
2023/04/17 10:49:58;;;;;;;6.25;3.90;;;;;;;10.59;69.29;95813.81;5086705;28;20339;-61
2023/04/17 10:52:34;;;;;;;9.15;4.30;;;;;;;10.25;71.36;95814.19;5094329;28;20016;-61
2023/04/17 10:55:21;;;;;;;6.03;4.03;;;;;;;10.35;72.16;95811.56;5082192;28;20037;-61
2023/04/17 10:58:12;;;;;;;4.47;4.13;;;;;;;10.35;70.39;95811.56;5084475;28;20020;-61
2023/04/17 11:00:49;;;;;;;4.55;4.22;;;;;;;10.43;71.93;95809.09;5091294;28;20036;-62
2023/04/17 11:03:16;;;;;;;4.65;4.35;;;;;;;10.49;71.67;95807.72;5075559;28;20031;-61
2023/04/17 11:05:45;;;;;;;4.55;4.20;;;;;;;10.58;71.64;95809.50;5076028;28;20021;-60
2023/04/17 11:08:11;;;;;;;4.53;4.18;;;;;;;10.42;71.09;95803.03;5076490;28;20088;-60
2023/04/17 11:10:38;;;;;;;4.18;3.88;;;;;;;10.43;71.38;95804.69;5079565;28;20182;-60
2023/04/17 11:13:04;;;;;;;3.90;3.70;;;;;;;10.32;69.69;95804.78;5095855;28;20028;-60
2023/04/17 11:15:33;;;;;;;4.30;4.00;;;;;;;10.25;71.40;95812.38;5085396;28;20032;-61
2023/04/17 11:17:59;;;;;;;4.25;3.95;;;;;;;10.16;71.93;95805.31;5078207;28;20426;-60
2023/04/17 11:20:27;;;;;;;4.35;3.97;;;;;;;10.28;72.55;95806.03;5079105;28;20472;-60
2023/04/17 11:22:53;;;;;;;4.38;4.07;;;;;;;10.53;68.43;95796.78;5082946;28;20115;-61
2023/04/17 11:25:26;;;;;;;7.93;6.15;;;;;;;10.14;71.16;95799.38;5077477;28;20112;-61
2023/04/17 11:27:58;;;;;;;8.43;6.28;;;;;;;10.02;72.03;95802.09;5075565;28;20494;-61
2023/04/17 11:30:30;;;;;;;5.97;5.38;;;;;;;10.16;72.77;95800.88;5086291;28;20040;-61
2023/04/17 11:33:00;;;;;;;5.05;4.65;;;;;;;10.25;72.62;95801.84;5077918;28;20033;-61
2023/04/17 11:35:31;;;;;;;5.82;5.22;;;;;;;10.35;71.09;95790.50;5084116;28;20096;-61
2023/04/17 11:38:22;;;;;;;4.75;4.45;;;;;;;10.25;69.28;95788.69;5096478;28;20023;-61
2023/04/17 11:40:48;;;;;;;5.60;5.10;;;;;;;10.52;66.66;95795.13;5088608;28;20036;-62